CST,Max TemperatureF,Mean TemperatureF,Min TemperatureF,Max Dew PointF,MeanDew PointF,Min DewpointF,Max Humidity, Mean Humidity, Min Humidity, Max Sea Level PressureIn, Mean Sea Level PressureIn, Min Sea Level PressureIn, Max VisibilityMiles, Mean VisibilityMiles, Min VisibilityMiles, Max Wind SpeedMPH, Mean Wind SpeedMPH, Max Gust SpeedMPH,PrecipitationIn, CloudCover, Events, WindDirDegrees
2014-2-1,21,12,3,14,7,0,86,78,67,30.07,29.98,29.90,10,7,1,10,2,,0.03,7,Snow,320
2014-2-2,14,4,-5,7,0,-9,85,69,53,30.27,30.20,30.05,10,10,2,16,7,18,0.00,0,Snow,290
2014-2-3,21,4,-13,3,-4,-18,85,61,39,30.33,30.29,30.26,10,10,2,10,3,,0.00,0,,228
2014-2-4,21,11,1,14,6,-4,85,70,54,30.39,30.31,30.18,10,10,10,10,4,17,0.00,3,,356
2014-2-5,21,13,5,14,6,0,86,71,58,30.38,30.26,30.13,10,9,2,16,10,21,0.00,6,Snow,333
2014-2-6,5,0,-4,0,-7,-9,85,67,56,30.36,30.29,30.23,10,10,7,17,9,23,0.00,0,,261
2014-2-7,12,5,-2,-4,-6,-9,78,61,45,30.25,30.22,30.18,10,10,5,16,10,24,0.00,1,,238
2014-2-8,15,5,-5,9,2,-9,85,75,57,30.24,30.16,30.09,10,8,1,8,3,,0.00,5,Snow,227
2014-2-9,17,10,1,9,2,-9,85,69,52,30.24,30.12,30.07,10,10,5,14,7,18,0.00,4,Snow,286
2014-2-10,6,0,-7,-8,-10,-15,85,62,48,30.41,30.33,30.24,10,10,10,13,7,17,0.00,0,,290
2014-2-11,15,4,-7,-6,-9,-15,77,56,38,30.46,30.39,30.29,10,10,10,8,3,,0.00,0,,224
2014-2-12,19,10,1,14,4,-9,92,72,61,30.30,30.12,29.98,10,8,1,9,4,,0.00,6,Snow,205
2014-2-13,28,20,12,21,14,5,93,70,43,29.96,29.65,29.46,10,8,0,16,5,24,0.01,8,Snow,195
2014-2-14,23,16,10,14,7,1,86,67,54,29.93,29.72,29.52,10,10,10,16,11,26,0.00,1,Snow,300
2014-2-15,23,10,-4,14,3,-9,86,67,46,30.04,29.97,29.91,10,9,2,8,4,,0.00,2,Snow,225
2014-2-16,21,14,6,14,8,3,86,74,54,30.27,30.12,29.91,10,9,2,12,5,,0.00,5,Snow,344
2014-2-17,24,17,10,21,17,5,93,85,74,30.23,29.90,29.68,10,5,0,20,6,28,0.09,8,Snow,149
2014-2-18,44,32,19,27,23,16,93,73,46,29.85,29.71,29.57,10,8,2,15,7,22,0.00,2,,220
2014-2-19,42,36,30,28,23,19,87,62,39,29.91,29.81,29.61,10,10,10,12,6,18,0.00,2,,255
2014-2-20,37,34,32,37,30,25,100,89,70,29.88,29.56,29.09,10,6,0,24,8,41,0.25,8,Rain-Snow,116
2014-2-21,33,26,19,30,15,9,87,67,51,29.69,29.41,29.10,10,10,4,30,22,41,0.00,5,Snow,238
2014-2-22,28,22,15,10,8,5,68,57,40,30.01,29.86,29.68,10,10,10,22,15,32,0.00,0,,256
2014-2-23,23,16,8,5,3,0,73,57,43,30.13,30.08,30.01,10,10,10,21,15,29,0.00,0,,268
2014-2-24,21,14,6,5,2,0,73,60,46,30.18,30.15,30.11,10,10,10,23,12,31,0.00,1,,278
2014-2-25,14,8,1,3,-3,-9,73,57,41,30.19,30.14,30.07,10,10,7,18,11,25,0.00,2,,280
2014-2-26,12,4,-4,5,-8,-15,73,55,37,30.17,29.88,29.55,10,10,2,23,13,36,0.00,2,Snow,252
2014-2-27,10,0,-9,0,-14,-20,71,48,30,30.16,29.99,29.58,10,10,10,23,13,33,0.00,0,,296
2014-2-28,21,4,-13,14,-2,-18,80,65,45,30.16,30.06,29.94,10,9,2,14,3,22,0.00,5,Snow,164